sensor_id;sensor_type;location;lat;lon;timestamp;temperature;humidity
2957;DHT22;1488;51.548;7.222;2022-10-17T00:01:01;25.80;68.50
2957;DHT22;1488;51.548;7.222;2022-10-17T00:03:28;25.80;68.50
2957;DHT22;1488;51.548;7.222;2022-10-17T00:05:55;25.80;68.50
2957;DHT22;1488;51.548;7.222;2022-10-17T00:08:23;25.80;68.50
2957;DHT22;1488;51.548;7.222;2022-10-17T00:10:58;25.80;68.40
2957;DHT22;1488;51.548;7.222;2022-10-17T00:13:25;25.80;68.40
2957;DHT22;1488;51.548;7.222;2022-10-17T00:15:52;25.80;68.40
2957;DHT22;1488;51.548;7.222;2022-10-17T00:18:20;25.80;68.50
2957;DHT22;1488;51.548;7.222;2022-10-17T00:20:46;25.80;68.40
2957;DHT22;1488;51.548;7.222;2022-10-17T00:23:13;25.80;68.40
2957;DHT22;1488;51.548;7.222;2022-10-17T00:25:41;25.80;68.40
2957;DHT22;1488;51.548;7.222;2022-10-17T00:28:13;25.80;68.40
2957;DHT22;1488;51.548;7.222;2022-10-17T00:30:40;25.80;68.40
2957;DHT22;1488;51.548;7.222;2022-10-17T00:33:07;25.70;68.30
2957;DHT22;1488;51.548;7.222;2022-10-17T00:35:34;25.70;68.30
2957;DHT22;1488;51.548;7.222;2022-10-17T00:38:01;25.70;68.20
2957;DHT22;1488;51.548;7.222;2022-10-17T00:40:28;25.70;68.20
2957;DHT22;1488;51.548;7.222;2022-10-17T00:42:56;25.70;68.30
2957;DHT22;1488;51.548;7.222;2022-10-17T00:45:25;25.70;68.30
2957;DHT22;1488;51.548;7.222;2022-10-17T00:47:54;25.80;68.40
2957;DHT22;1488;51.548;7.222;2022-10-17T00:50:24;25.70;68.20
2957;DHT22;1488;51.548;7.222;2022-10-17T00:52:51;25.70;68.20
2957;DHT22;1488;51.548;7.222;2022-10-17T00:55:21;25.70;68.20
2957;DHT22;1488;51.548;7.222;2022-10-17T00:57:49;25.70;68.20
2957;DHT22;1488;51.548;7.222;2022-10-17T01:00:20;25.70;68.20
2957;DHT22;1488;51.548;7.222;2022-10-17T01:02:47;25.70;68.20
2957;DHT22;1488;51.548;7.222;2022-10-17T01:05:15;25.70;68.20
2957;DHT22;1488;51.548;7.222;2022-10-17T01:07:43;25.70;68.20
2957;DHT22;1488;51.548;7.222;2022-10-17T01:10:11;25.70;68.20
2957;DHT22;1488;51.548;7.222;2022-10-17T01:12:51;25.70;68.20
2957;DHT22;1488;51.548;7.222;2022-10-17T01:15:32;25.70;68.30
2957;DHT22;1488;51.548;7.222;2022-10-17T01:18:09;25.70;68.20
2957;DHT22;1488;51.548;7.222;2022-10-17T01:21:08;25.70;68.20
2957;DHT22;1488;51.548;7.222;2022-10-17T01:26:46;25.70;68.20
2957;DHT22;1488;51.548;7.222;2022-10-17T01:29:40;25.70;68.20
2957;DHT22;1488;51.548;7.222;2022-10-17T01:32:16;25.70;68.20
2957;DHT22;1488;51.548;7.222;2022-10-17T01:34:47;25.70;68.20
2957;DHT22;1488;51.548;7.222;2022-10-17T01:37:20;25.70;69.10
2957;DHT22;1488;51.548;7.222;2022-10-17T01:39:53;25.70;68.20
2957;DHT22;1488;51.548;7.222;2022-10-17T01:42:26;25.60;68.20
2957;DHT22;1488;51.548;7.222;2022-10-17T01:44:59;25.70;68.20
2957;DHT22;1488;51.548;7.222;2022-10-17T01:47:30;25.70;68.10
2957;DHT22;1488;51.548;7.222;2022-10-17T01:50:01;25.70;68.10
2957;DHT22;1488;51.548;7.222;2022-10-17T01:52:36;25.70;68.10
2957;DHT22;1488;51.548;7.222;2022-10-17T01:55:08;25.70;68.10
2957;DHT22;1488;51.548;7.222;2022-10-17T01:57:39;25.70;68.10
2957;DHT22;1488;51.548;7.222;2022-10-17T02:00:10;25.60;68.10
2957;DHT22;1488;51.548;7.222;2022-10-17T02:02:41;25.60;68.10
2957;DHT22;1488;51.548;7.222;2022-10-17T02:05:09;25.70;68.10
2957;DHT22;1488;51.548;7.222;2022-10-17T02:07:36;25.60;68.00
2957;DHT22;1488;51.548;7.222;2022-10-17T02:10:07;25.70;68.10
2957;DHT22;1488;51.548;7.222;2022-10-17T02:12:46;25.70;68.10
2957;DHT22;1488;51.548;7.222;2022-10-17T02:15:31;25.70;68.00
2957;DHT22;1488;51.548;7.222;2022-10-17T02:18:14;25.70;68.00
2957;DHT22;1488;51.548;7.222;2022-10-17T02:20:50;25.60;68.00
2957;DHT22;1488;51.548;7.222;2022-10-17T02:23:22;25.60;68.10
2957;DHT22;1488;51.548;7.222;2022-10-17T02:25:57;25.60;68.10
2957;DHT22;1488;51.548;7.222;2022-10-17T02:28:30;25.60;68.10
2957;DHT22;1488;51.548;7.222;2022-10-17T02:31:01;25.60;68.10
2957;DHT22;1488;51.548;7.222;2022-10-17T02:33:33;25.60;68.10
2957;DHT22;1488;51.548;7.222;2022-10-17T02:36:03;25.60;68.20
2957;DHT22;1488;51.548;7.222;2022-10-17T02:38:33;25.60;68.10
2957;DHT22;1488;51.548;7.222;2022-10-17T02:41:01;25.60;68.10
2957;DHT22;1488;51.548;7.222;2022-10-17T02:43:29;25.60;68.10
2957;DHT22;1488;51.548;7.222;2022-10-17T02:45:56;25.60;68.10
2957;DHT22;1488;51.548;7.222;2022-10-17T02:48:26;25.60;68.10
2957;DHT22;1488;51.548;7.222;2022-10-17T02:51:03;25.60;68.10
2957;DHT22;1488;51.548;7.222;2022-10-17T02:53:36;25.60;68.00
2957;DHT22;1488;51.548;7.222;2022-10-17T02:56:08;25.70;68.20
2957;DHT22;1488;51.548;7.222;2022-10-17T02:58:40;25.60;69.00
2957;DHT22;1488;51.548;7.222;2022-10-17T03:01:08;25.60;68.20
2957;DHT22;1488;51.548;7.222;2022-10-17T03:03:35;25.60;68.10
2957;DHT22;1488;51.548;7.222;2022-10-17T03:06:03;25.60;68.10
2957;DHT22;1488;51.548;7.222;2022-10-17T03:08:30;25.60;68.10
2957;DHT22;1488;51.548;7.222;2022-10-17T03:10:57;25.60;68.10
2957;DHT22;1488;51.548;7.222;2022-10-17T03:13:24;25.60;68.10
2957;DHT22;1488;51.548;7.222;2022-10-17T03:15:51;25.60;68.10
2957;DHT22;1488;51.548;7.222;2022-10-17T03:18:17;25.60;68.20
2957;DHT22;1488;51.548;7.222;2022-10-17T03:20:44;25.60;68.10
2957;DHT22;1488;51.548;7.222;2022-10-17T03:23:12;25.60;69.00
2957;DHT22;1488;51.548;7.222;2022-10-17T03:25:39;25.60;68.10
2957;DHT22;1488;51.548;7.222;2022-10-17T03:28:06;25.60;68.20
2957;DHT22;1488;51.548;7.222;2022-10-17T03:30:33;25.60;68.20
2957;DHT22;1488;51.548;7.222;2022-10-17T03:33:03;25.60;68.20
2957;DHT22;1488;51.548;7.222;2022-10-17T03:35:30;25.60;68.10
2957;DHT22;1488;51.548;7.222;2022-10-17T03:37:57;25.60;68.20
2957;DHT22;1488;51.548;7.222;2022-10-17T03:40:25;25.60;68.20
2957;DHT22;1488;51.548;7.222;2022-10-17T03:42:55;25.60;68.20
2957;DHT22;1488;51.548;7.222;2022-10-17T03:45:21;25.60;68.20
2957;DHT22;1488;51.548;7.222;2022-10-17T03:47:48;25.60;68.20
2957;DHT22;1488;51.548;7.222;2022-10-17T03:50:15;25.60;68.20
2957;DHT22;1488;51.548;7.222;2022-10-17T03:52:45;25.60;68.20
2957;DHT22;1488;51.548;7.222;2022-10-17T03:55:12;25.60;68.20
2957;DHT22;1488;51.548;7.222;2022-10-17T03:57:40;25.60;68.20
2957;DHT22;1488;51.548;7.222;2022-10-17T04:00:12;25.60;68.20
2957;DHT22;1488;51.548;7.222;2022-10-17T04:02:39;25.60;68.20
2957;DHT22;1488;51.548;7.222;2022-10-17T04:05:07;25.60;68.30
2957;DHT22;1488;51.548;7.222;2022-10-17T04:07:34;25.50;68.20
2957;DHT22;1488;51.548;7.222;2022-10-17T04:10:01;25.50;68.10
2957;DHT22;1488;51.548;7.222;2022-10-17T04:12:28;25.50;68.20
2957;DHT22;1488;51.548;7.222;2022-10-17T04:14:57;25.50;68.30
2957;DHT22;1488;51.548;7.222;2022-10-17T04:17:23;25.60;68.30
2957;DHT22;1488;51.548;7.222;2022-10-17T04:19:50;25.50;68.20
2957;DHT22;1488;51.548;7.222;2022-10-17T04:22:17;25.50;68.20
2957;DHT22;1488;51.548;7.222;2022-10-17T04:24:44;25.50;68.20
2957;DHT22;1488;51.548;7.222;2022-10-17T04:27:11;25.50;68.30
2957;DHT22;1488;51.548;7.222;2022-10-17T04:29:38;25.50;68.20
2957;DHT22;1488;51.548;7.222;2022-10-17T04:32:06;25.50;68.30
2957;DHT22;1488;51.548;7.222;2022-10-17T04:34:33;25.60;68.40
2957;DHT22;1488;51.548;7.222;2022-10-17T04:37:00;25.50;69.10
2957;DHT22;1488;51.548;7.222;2022-10-17T04:39:28;25.60;68.30
2957;DHT22;1488;51.548;7.222;2022-10-17T04:41:56;25.50;68.20
2957;DHT22;1488;51.548;7.222;2022-10-17T04:44:23;25.50;68.30
2957;DHT22;1488;51.548;7.222;2022-10-17T04:46:51;25.50;68.30
2957;DHT22;1488;51.548;7.222;2022-10-17T04:49:19;25.50;68.40
2957;DHT22;1488;51.548;7.222;2022-10-17T04:51:46;25.50;68.30
2957;DHT22;1488;51.548;7.222;2022-10-17T04:54:12;25.50;68.30
2957;DHT22;1488;51.548;7.222;2022-10-17T04:56:39;25.50;68.30
2957;DHT22;1488;51.548;7.222;2022-10-17T04:59:06;25.50;68.30
2957;DHT22;1488;51.548;7.222;2022-10-17T05:01:33;25.50;68.30
2957;DHT22;1488;51.548;7.222;2022-10-17T05:04:00;25.50;68.40
2957;DHT22;1488;51.548;7.222;2022-10-17T05:06:28;25.50;68.30
2957;DHT22;1488;51.548;7.222;2022-10-17T05:08:57;25.50;69.20
2957;DHT22;1488;51.548;7.222;2022-10-17T05:11:25;25.50;68.40
2957;DHT22;1488;51.548;7.222;2022-10-17T05:13:53;25.50;68.40
2957;DHT22;1488;51.548;7.222;2022-10-17T05:16:21;25.50;68.50
2957;DHT22;1488;51.548;7.222;2022-10-17T05:18:49;25.50;68.50
2957;DHT22;1488;51.548;7.222;2022-10-17T05:21:16;25.50;68.50
2957;DHT22;1488;51.548;7.222;2022-10-17T05:23:45;25.50;68.50
2957;DHT22;1488;51.548;7.222;2022-10-17T05:26:12;25.50;68.50
2957;DHT22;1488;51.548;7.222;2022-10-17T05:28:39;25.50;68.60
2957;DHT22;1488;51.548;7.222;2022-10-17T05:31:07;25.50;68.60
2957;DHT22;1488;51.548;7.222;2022-10-17T05:33:35;25.50;69.50
2957;DHT22;1488;51.548;7.222;2022-10-17T05:36:03;25.50;68.60
2957;DHT22;1488;51.548;7.222;2022-10-17T05:38:30;25.50;68.70
2957;DHT22;1488;51.548;7.222;2022-10-17T05:40:59;25.50;68.80
2957;DHT22;1488;51.548;7.222;2022-10-17T05:43:26;25.50;69.20
2957;DHT22;1488;51.548;7.222;2022-10-17T05:45:53;25.50;69.50
2957;DHT22;1488;51.548;7.222;2022-10-17T05:48:21;25.50;69.40
2957;DHT22;1488;51.548;7.222;2022-10-17T05:50:48;25.50;69.10
2957;DHT22;1488;51.548;7.222;2022-10-17T05:53:15;25.50;69.00
2957;DHT22;1488;51.548;7.222;2022-10-17T05:55:42;25.50;69.00
2957;DHT22;1488;51.548;7.222;2022-10-17T05:58:10;25.50;69.10
2957;DHT22;1488;51.548;7.222;2022-10-17T06:00:37;25.50;69.20
2957;DHT22;1488;51.548;7.222;2022-10-17T06:03:04;25.50;69.10
2957;DHT22;1488;51.548;7.222;2022-10-17T06:05:30;25.50;69.10
2957;DHT22;1488;51.548;7.222;2022-10-17T06:08:00;25.50;69.20
2957;DHT22;1488;51.548;7.222;2022-10-17T06:10:27;25.50;69.20
2957;DHT22;1488;51.548;7.222;2022-10-17T06:12:54;25.50;69.30
2957;DHT22;1488;51.548;7.222;2022-10-17T06:15:22;25.50;69.30
2957;DHT22;1488;51.548;7.222;2022-10-17T06:17:49;25.50;69.40
2957;DHT22;1488;51.548;7.222;2022-10-17T06:20:16;25.50;69.40
2957;DHT22;1488;51.548;7.222;2022-10-17T06:22:43;25.50;69.30
2957;DHT22;1488;51.548;7.222;2022-10-17T06:25:10;25.50;69.20
2957;DHT22;1488;51.548;7.222;2022-10-17T06:27:37;25.50;69.30
2957;DHT22;1488;51.548;7.222;2022-10-17T06:30:05;25.50;69.40
2957;DHT22;1488;51.548;7.222;2022-10-17T06:32:33;25.50;69.40
2957;DHT22;1488;51.548;7.222;2022-10-17T06:35:00;25.50;69.40
2957;DHT22;1488;51.548;7.222;2022-10-17T06:37:30;25.50;69.40
2957;DHT22;1488;51.548;7.222;2022-10-17T06:39:57;25.50;69.40
2957;DHT22;1488;51.548;7.222;2022-10-17T06:42:24;25.50;69.30
2957;DHT22;1488;51.548;7.222;2022-10-17T06:44:51;25.50;69.30
2957;DHT22;1488;51.548;7.222;2022-10-17T06:47:18;25.50;69.30
2957;DHT22;1488;51.548;7.222;2022-10-17T06:49:46;25.50;69.30
2957;DHT22;1488;51.548;7.222;2022-10-17T06:52:13;25.50;69.30
2957;DHT22;1488;51.548;7.222;2022-10-17T06:54:41;25.50;69.30
2957;DHT22;1488;51.548;7.222;2022-10-17T06:57:08;25.50;70.10
2957;DHT22;1488;51.548;7.222;2022-10-17T06:59:35;25.50;69.40
2957;DHT22;1488;51.548;7.222;2022-10-17T07:02:02;25.50;69.30
2957;DHT22;1488;51.548;7.222;2022-10-17T07:04:30;25.50;69.30
2957;DHT22;1488;51.548;7.222;2022-10-17T07:06:58;25.50;69.30
2957;DHT22;1488;51.548;7.222;2022-10-17T07:09:27;25.50;69.20
2957;DHT22;1488;51.548;7.222;2022-10-17T07:11:55;25.50;69.20
2957;DHT22;1488;51.548;7.222;2022-10-17T07:14:22;25.50;69.20
2957;DHT22;1488;51.548;7.222;2022-10-17T07:16:56;25.60;69.30
2957;DHT22;1488;51.548;7.222;2022-10-17T07:19:23;25.50;69.10
2957;DHT22;1488;51.548;7.222;2022-10-17T07:21:50;25.50;70.00
2957;DHT22;1488;51.548;7.222;2022-10-17T07:24:18;25.60;69.20
2957;DHT22;1488;51.548;7.222;2022-10-17T07:26:45;25.60;69.10
2957;DHT22;1488;51.548;7.222;2022-10-17T07:29:12;25.60;69.10
2957;DHT22;1488;51.548;7.222;2022-10-17T07:31:39;25.60;69.10
2957;DHT22;1488;51.548;7.222;2022-10-17T07:34:06;25.60;69.00
2957;DHT22;1488;51.548;7.222;2022-10-17T07:36:32;25.60;69.10
2957;DHT22;1488;51.548;7.222;2022-10-17T07:38:59;25.50;69.00
2957;DHT22;1488;51.548;7.222;2022-10-17T07:41:27;25.60;69.10
2957;DHT22;1488;51.548;7.222;2022-10-17T07:43:55;25.60;69.30
2957;DHT22;1488;51.548;7.222;2022-10-17T07:46:21;25.60;69.00
2957;DHT22;1488;51.548;7.222;2022-10-17T07:48:48;25.60;68.90
2957;DHT22;1488;51.548;7.222;2022-10-17T07:51:15;25.60;68.80
2957;DHT22;1488;51.548;7.222;2022-10-17T07:53:43;25.60;68.80
2957;DHT22;1488;51.548;7.222;2022-10-17T07:56:10;25.60;68.80
2957;DHT22;1488;51.548;7.222;2022-10-17T07:58:39;25.70;68.90
2957;DHT22;1488;51.548;7.222;2022-10-17T08:01:07;25.70;68.80
2957;DHT22;1488;51.548;7.222;2022-10-17T08:03:35;25.70;68.80
2957;DHT22;1488;51.548;7.222;2022-10-17T08:06:02;25.70;68.80
2957;DHT22;1488;51.548;7.222;2022-10-17T08:08:29;25.70;68.80
2957;DHT22;1488;51.548;7.222;2022-10-17T08:11:01;25.70;68.80
2957;DHT22;1488;51.548;7.222;2022-10-17T08:13:28;25.70;68.80
2957;DHT22;1488;51.548;7.222;2022-10-17T08:15:59;25.70;68.80
2957;DHT22;1488;51.548;7.222;2022-10-17T08:18:26;25.70;68.90
2957;DHT22;1488;51.548;7.222;2022-10-17T08:20:53;25.70;68.80
2957;DHT22;1488;51.548;7.222;2022-10-17T08:23:19;25.80;68.90
2957;DHT22;1488;51.548;7.222;2022-10-17T08:25:46;25.80;68.90
2957;DHT22;1488;51.548;7.222;2022-10-17T08:28:13;25.80;68.80
2957;DHT22;1488;51.548;7.222;2022-10-17T08:30:40;25.90;68.80
2957;DHT22;1488;51.548;7.222;2022-10-17T08:33:08;26.00;68.70
2957;DHT22;1488;51.548;7.222;2022-10-17T08:35:35;26.10;68.50
2957;DHT22;1488;51.548;7.222;2022-10-17T08:38:02;26.10;68.40
2957;DHT22;1488;51.548;7.222;2022-10-17T08:40:30;26.30;68.20
2957;DHT22;1488;51.548;7.222;2022-10-17T08:43:17;26.40;68.00
2957;DHT22;1488;51.548;7.222;2022-10-17T08:45:51;26.60;68.50
2957;DHT22;1488;51.548;7.222;2022-10-17T08:48:23;26.80;68.20
2957;DHT22;1488;51.548;7.222;2022-10-17T08:50:53;27.00;67.00
2957;DHT22;1488;51.548;7.222;2022-10-17T08:53:26;27.20;66.60
2957;DHT22;1488;51.548;7.222;2022-10-17T08:55:57;27.30;66.10
2957;DHT22;1488;51.548;7.222;2022-10-17T08:58:30;27.40;65.80
2957;DHT22;1488;51.548;7.222;2022-10-17T09:01:03;27.40;65.70
2957;DHT22;1488;51.548;7.222;2022-10-17T09:03:48;27.50;65.90
2957;DHT22;1488;51.548;7.222;2022-10-17T09:06:21;27.50;65.90
2957;DHT22;1488;51.548;7.222;2022-10-17T09:09:05;27.40;65.90
2957;DHT22;1488;51.548;7.222;2022-10-17T09:11:45;27.50;66.00
2957;DHT22;1488;51.548;7.222;2022-10-17T09:17:31;27.30;66.20
2957;DHT22;1488;51.548;7.222;2022-10-17T09:20:08;27.30;66.60
2957;DHT22;1488;51.548;7.222;2022-10-17T09:22:39;27.40;66.40
2957;DHT22;1488;51.548;7.222;2022-10-17T09:25:11;27.50;66.30
2957;DHT22;1488;51.548;7.222;2022-10-17T09:27:42;27.50;66.20
2957;DHT22;1488;51.548;7.222;2022-10-17T09:33:09;27.80;65.70
2957;DHT22;1488;51.548;7.222;2022-10-17T09:35:38;27.70;65.70
2957;DHT22;1488;51.548;7.222;2022-10-17T09:38:16;27.70;65.80
2957;DHT22;1488;51.548;7.222;2022-10-17T09:40:43;27.80;65.60
2957;DHT22;1488;51.548;7.222;2022-10-17T09:43:12;27.90;65.70
2957;DHT22;1488;51.548;7.222;2022-10-17T09:45:43;27.90;65.60
2957;DHT22;1488;51.548;7.222;2022-10-17T09:48:19;28.10;65.40
2957;DHT22;1488;51.548;7.222;2022-10-17T09:50:50;28.10;65.10
2957;DHT22;1488;51.548;7.222;2022-10-17T09:53:20;28.00;65.20
2957;DHT22;1488;51.548;7.222;2022-10-17T09:55:50;28.00;65.50
2957;DHT22;1488;51.548;7.222;2022-10-17T09:58:20;27.80;65.50
2957;DHT22;1488;51.548;7.222;2022-10-17T10:00:48;27.70;65.80
2957;DHT22;1488;51.548;7.222;2022-10-17T10:03:17;27.60;66.10
2957;DHT22;1488;51.548;7.222;2022-10-17T10:06:00;27.50;66.40
2957;DHT22;1488;51.548;7.222;2022-10-17T10:08:32;27.40;66.60
2957;DHT22;1488;51.548;7.222;2022-10-17T10:11:01;27.20;66.90
2957;DHT22;1488;51.548;7.222;2022-10-17T10:13:30;27.10;67.10
2957;DHT22;1488;51.548;7.222;2022-10-17T10:16:16;27.00;67.30
2957;DHT22;1488;51.548;7.222;2022-10-17T10:18:44;27.00;67.60
2957;DHT22;1488;51.548;7.222;2022-10-17T10:21:14;26.90;67.80
2957;DHT22;1488;51.548;7.222;2022-10-17T10:23:42;26.80;68.70
2957;DHT22;1488;51.548;7.222;2022-10-17T10:26:18;26.70;68.00
2957;DHT22;1488;51.548;7.222;2022-10-17T10:28:51;26.70;68.20
2957;DHT22;1488;51.548;7.222;2022-10-17T10:31:29;26.70;68.30
2957;DHT22;1488;51.548;7.222;2022-10-17T10:33:59;26.60;68.40
2957;DHT22;1488;51.548;7.222;2022-10-17T10:36:44;26.50;68.40
2957;DHT22;1488;51.548;7.222;2022-10-17T10:39:24;26.50;68.50
2957;DHT22;1488;51.548;7.222;2022-10-17T10:41:52;26.50;68.70
2957;DHT22;1488;51.548;7.222;2022-10-17T10:44:22;26.40;68.70
2957;DHT22;1488;51.548;7.222;2022-10-17T10:47:08;26.40;68.80
2957;DHT22;1488;51.548;7.222;2022-10-17T10:49:40;26.40;68.80
2957;DHT22;1488;51.548;7.222;2022-10-17T10:52:13;26.30;68.90
2957;DHT22;1488;51.548;7.222;2022-10-17T10:54:53;26.40;69.00
2957;DHT22;1488;51.548;7.222;2022-10-17T10:57:25;26.30;69.00
2957;DHT22;1488;51.548;7.222;2022-10-17T10:59:59;26.30;69.00
2957;DHT22;1488;51.548;7.222;2022-10-17T11:02:31;26.30;69.00
2957;DHT22;1488;51.548;7.222;2022-10-17T11:05:03;26.30;69.00
2957;DHT22;1488;51.548;7.222;2022-10-17T11:07:36;26.30;69.10
2957;DHT22;1488;51.548;7.222;2022-10-17T11:10:09;26.30;69.10
2957;DHT22;1488;51.548;7.222;2022-10-17T11:12:40;26.20;69.10
2957;DHT22;1488;51.548;7.222;2022-10-17T11:15:17;26.20;70.00
2957;DHT22;1488;51.548;7.222;2022-10-17T11:17:54;26.20;69.10
2957;DHT22;1488;51.548;7.222;2022-10-17T11:20:29;26.20;69.20
2957;DHT22;1488;51.548;7.222;2022-10-17T11:23:03;26.20;69.30
2957;DHT22;1488;51.548;7.222;2022-10-17T11:25:36;26.20;69.30
2957;DHT22;1488;51.548;7.222;2022-10-17T11:28:11;26.20;69.30
2957;DHT22;1488;51.548;7.222;2022-10-17T11:30:43;26.20;69.30
2957;DHT22;1488;51.548;7.222;2022-10-17T11:33:16;26.20;69.40
2957;DHT22;1488;51.548;7.222;2022-10-17T11:35:45;26.20;69.40
2957;DHT22;1488;51.548;7.222;2022-10-17T11:38:18;26.20;69.50
2957;DHT22;1488;51.548;7.222;2022-10-17T11:40:49;26.20;69.50
2957;DHT22;1488;51.548;7.222;2022-10-17T11:43:19;26.20;69.50
2957;DHT22;1488;51.548;7.222;2022-10-17T11:45:52;26.20;69.50
2957;DHT22;1488;51.548;7.222;2022-10-17T11:48:24;26.20;69.50
2957;DHT22;1488;51.548;7.222;2022-10-17T11:50:58;26.20;69.60
2957;DHT22;1488;51.548;7.222;2022-10-17T11:53:30;26.20;69.60
2957;DHT22;1488;51.548;7.222;2022-10-17T11:55:59;26.20;69.60
2957;DHT22;1488;51.548;7.222;2022-10-17T11:58:32;26.20;69.60
2957;DHT22;1488;51.548;7.222;2022-10-17T12:01:08;26.20;69.60
2957;DHT22;1488;51.548;7.222;2022-10-17T12:03:47;26.20;69.60
2957;DHT22;1488;51.548;7.222;2022-10-17T12:06:31;26.20;69.70
2957;DHT22;1488;51.548;7.222;2022-10-17T12:09:09;26.20;69.80
2957;DHT22;1488;51.548;7.222;2022-10-17T12:11:44;26.10;69.80
2957;DHT22;1488;51.548;7.222;2022-10-17T12:14:42;26.20;69.80
2957;DHT22;1488;51.548;7.222;2022-10-17T12:17:28;26.20;69.70
2957;DHT22;1488;51.548;7.222;2022-10-17T12:20:23;26.10;69.70
2957;DHT22;1488;51.548;7.222;2022-10-17T12:22:51;26.20;69.70
2957;DHT22;1488;51.548;7.222;2022-10-17T12:25:22;26.10;69.80
2957;DHT22;1488;51.548;7.222;2022-10-17T12:28:10;26.10;69.70
2957;DHT22;1488;51.548;7.222;2022-10-17T12:30:49;26.10;69.70
2957;DHT22;1488;51.548;7.222;2022-10-17T12:33:17;26.10;69.80
2957;DHT22;1488;51.548;7.222;2022-10-17T12:35:47;26.10;69.80
2957;DHT22;1488;51.548;7.222;2022-10-17T12:38:24;26.10;69.80
2957;DHT22;1488;51.548;7.222;2022-10-17T12:40:59;26.10;69.70
2957;DHT22;1488;51.548;7.222;2022-10-17T12:43:43;26.10;69.80
2957;DHT22;1488;51.548;7.222;2022-10-17T12:46:11;26.10;69.80
2957;DHT22;1488;51.548;7.222;2022-10-17T12:49:02;26.00;69.70
2957;DHT22;1488;51.548;7.222;2022-10-17T12:52:13;26.10;69.70
2957;DHT22;1488;51.548;7.222;2022-10-17T12:54:43;26.10;69.80
2957;DHT22;1488;51.548;7.222;2022-10-17T12:57:29;26.00;69.80
2957;DHT22;1488;51.548;7.222;2022-10-17T12:59:56;26.00;69.80
2957;DHT22;1488;51.548;7.222;2022-10-17T13:02:26;26.00;69.90
2957;DHT22;1488;51.548;7.222;2022-10-17T13:05:02;26.10;69.90
2957;DHT22;1488;51.548;7.222;2022-10-17T13:07:32;26.00;69.80
2957;DHT22;1488;51.548;7.222;2022-10-17T13:10:00;26.00;69.80
2957;DHT22;1488;51.548;7.222;2022-10-17T13:12:33;26.00;69.80
2957;DHT22;1488;51.548;7.222;2022-10-17T13:15:03;26.00;69.80
2957;DHT22;1488;51.548;7.222;2022-10-17T13:17:31;26.00;69.80
2957;DHT22;1488;51.548;7.222;2022-10-17T13:19:59;26.00;69.80
2957;DHT22;1488;51.548;7.222;2022-10-17T13:22:28;26.00;69.80
2957;DHT22;1488;51.548;7.222;2022-10-17T13:25:05;26.00;69.80
2957;DHT22;1488;51.548;7.222;2022-10-17T13:27:35;26.00;69.80
2957;DHT22;1488;51.548;7.222;2022-10-17T13:30:22;26.00;69.80
2957;DHT22;1488;51.548;7.222;2022-10-17T13:32:49;26.00;69.70
2957;DHT22;1488;51.548;7.222;2022-10-17T13:35:22;26.00;69.80
2957;DHT22;1488;51.548;7.222;2022-10-17T13:37:51;26.00;69.80
2957;DHT22;1488;51.548;7.222;2022-10-17T13:40:19;26.00;69.80
2957;DHT22;1488;51.548;7.222;2022-10-17T13:42:49;26.00;69.90
2957;DHT22;1488;51.548;7.222;2022-10-17T13:45:19;26.00;69.80
2957;DHT22;1488;51.548;7.222;2022-10-17T13:47:48;26.00;69.90
2957;DHT22;1488;51.548;7.222;2022-10-17T13:50:20;26.00;69.80
2957;DHT22;1488;51.548;7.222;2022-10-17T13:53:12;26.00;69.70
2957;DHT22;1488;51.548;7.222;2022-10-17T13:55:50;26.00;69.70
2957;DHT22;1488;51.548;7.222;2022-10-17T13:58:18;26.00;70.60
2957;DHT22;1488;51.548;7.222;2022-10-17T14:00:46;26.00;69.80
2957;DHT22;1488;51.548;7.222;2022-10-17T14:03:15;26.00;69.80
2957;DHT22;1488;51.548;7.222;2022-10-17T14:08:48;26.00;69.80
2957;DHT22;1488;51.548;7.222;2022-10-17T14:11:26;25.90;69.90
2957;DHT22;1488;51.548;7.222;2022-10-17T14:13:55;25.90;69.80
2957;DHT22;1488;51.548;7.222;2022-10-17T14:16:23;25.90;69.90
2957;DHT22;1488;51.548;7.222;2022-10-17T14:18:51;25.90;69.80
2957;DHT22;1488;51.548;7.222;2022-10-17T14:21:20;25.90;69.80
2957;DHT22;1488;51.548;7.222;2022-10-17T14:23:48;25.90;69.90
2957;DHT22;1488;51.548;7.222;2022-10-17T14:26:17;25.90;69.90
2957;DHT22;1488;51.548;7.222;2022-10-17T14:28:48;25.90;69.80
2957;DHT22;1488;51.548;7.222;2022-10-17T14:31:29;25.90;69.80
2957;DHT22;1488;51.548;7.222;2022-10-17T14:33:57;25.90;69.90
2957;DHT22;1488;51.548;7.222;2022-10-17T14:36:34;25.80;70.10
2957;DHT22;1488;51.548;7.222;2022-10-17T14:39:03;25.80;70.10
2957;DHT22;1488;51.548;7.222;2022-10-17T14:41:32;25.80;70.20
2957;DHT22;1488;51.548;7.222;2022-10-17T14:44:02;25.80;70.10
2957;DHT22;1488;51.548;7.222;2022-10-17T14:46:33;25.80;70.00
2957;DHT22;1488;51.548;7.222;2022-10-17T14:49:04;25.90;70.00
2957;DHT22;1488;51.548;7.222;2022-10-17T14:51:31;25.80;70.20
2957;DHT22;1488;51.548;7.222;2022-10-17T14:54:01;25.90;70.90
2957;DHT22;1488;51.548;7.222;2022-10-17T14:56:39;25.80;69.90
2957;DHT22;1488;51.548;7.222;2022-10-17T14:59:06;25.90;70.00
2957;DHT22;1488;51.548;7.222;2022-10-17T15:01:35;25.90;70.00
2957;DHT22;1488;51.548;7.222;2022-10-17T15:04:02;25.80;69.90
2957;DHT22;1488;51.548;7.222;2022-10-17T15:06:32;25.80;69.80
2957;DHT22;1488;51.548;7.222;2022-10-17T15:08:59;25.90;69.90
2957;DHT22;1488;51.548;7.222;2022-10-17T15:11:26;25.90;69.90
2957;DHT22;1488;51.548;7.222;2022-10-17T15:13:53;25.80;69.80
2957;DHT22;1488;51.548;7.222;2022-10-17T15:16:22;25.80;69.80
2957;DHT22;1488;51.548;7.222;2022-10-17T15:18:51;25.90;69.90
2957;DHT22;1488;51.548;7.222;2022-10-17T15:21:20;25.90;69.90
2957;DHT22;1488;51.548;7.222;2022-10-17T15:23:48;25.80;69.80
2957;DHT22;1488;51.548;7.222;2022-10-17T15:26:17;25.80;70.00
2957;DHT22;1488;51.548;7.222;2022-10-17T15:28:45;25.80;70.20
2957;DHT22;1488;51.548;7.222;2022-10-17T15:31:15;25.80;70.00
2957;DHT22;1488;51.548;7.222;2022-10-17T15:33:43;25.80;70.00
2957;DHT22;1488;51.548;7.222;2022-10-17T15:36:20;25.80;69.90
2957;DHT22;1488;51.548;7.222;2022-10-17T15:38:48;25.80;69.90
2957;DHT22;1488;51.548;7.222;2022-10-17T15:41:16;25.80;70.00
2957;DHT22;1488;51.548;7.222;2022-10-17T15:43:43;25.80;70.00
2957;DHT22;1488;51.548;7.222;2022-10-17T15:46:16;25.80;70.10
2957;DHT22;1488;51.548;7.222;2022-10-17T15:48:43;25.80;70.10
2957;DHT22;1488;51.548;7.222;2022-10-17T15:51:10;25.80;70.10
2957;DHT22;1488;51.548;7.222;2022-10-17T15:53:38;25.80;70.10
2957;DHT22;1488;51.548;7.222;2022-10-17T15:56:06;25.80;70.10
2957;DHT22;1488;51.548;7.222;2022-10-17T15:58:36;25.80;70.20
2957;DHT22;1488;51.548;7.222;2022-10-17T16:01:05;25.80;70.20
2957;DHT22;1488;51.548;7.222;2022-10-17T16:03:32;25.80;70.20
2957;DHT22;1488;51.548;7.222;2022-10-17T16:05:59;25.80;70.20
2957;DHT22;1488;51.548;7.222;2022-10-17T16:08:26;25.80;70.20
2957;DHT22;1488;51.548;7.222;2022-10-17T16:10:55;25.80;70.20
2957;DHT22;1488;51.548;7.222;2022-10-17T16:13:23;25.80;70.20
2957;DHT22;1488;51.548;7.222;2022-10-17T16:15:50;25.80;70.20
2957;DHT22;1488;51.548;7.222;2022-10-17T16:18:17;25.90;70.30
2957;DHT22;1488;51.548;7.222;2022-10-17T16:20:44;25.80;70.20
2957;DHT22;1488;51.548;7.222;2022-10-17T16:23:12;25.80;70.30
2957;DHT22;1488;51.548;7.222;2022-10-17T16:25:39;25.80;70.30
2957;DHT22;1488;51.548;7.222;2022-10-17T16:28:08;25.80;70.40
2957;DHT22;1488;51.548;7.222;2022-10-17T16:30:40;25.80;70.20
2957;DHT22;1488;51.548;7.222;2022-10-17T16:33:09;25.80;70.20
2957;DHT22;1488;51.548;7.222;2022-10-17T16:35:37;25.80;70.30